sensor_id;sensor_type;location;lat;lon;timestamp;P1;durP1;ratioP1;P2;durP2;ratioP2
21589;SDS011;10957;50.968;6.828;2022-08-19T00:01:36;3.22;;;3.05;;
21589;SDS011;10957;50.968;6.828;2022-08-19T00:06:40;3.15;;;2.92;;
21589;SDS011;10957;50.968;6.828;2022-08-19T00:11:42;3.75;;;3.40;;
21589;SDS011;10957;50.968;6.828;2022-08-19T00:16:44;3.33;;;3.15;;
21589;SDS011;10957;50.968;6.828;2022-08-19T00:21:47;3.83;;;3.60;;
21589;SDS011;10957;50.968;6.828;2022-08-19T00:26:48;3.95;;;3.65;;
21589;SDS011;10957;50.968;6.828;2022-08-19T00:31:49;3.80;;;3.50;;
21589;SDS011;10957;50.968;6.828;2022-08-19T00:36:54;4.57;;;4.25;;
21589;SDS011;10957;50.968;6.828;2022-08-19T00:41:55;2.65;;;2.55;;
21589;SDS011;10957;50.968;6.828;2022-08-19T00:46:57;3.67;;;3.47;;
21589;SDS011;10957;50.968;6.828;2022-08-19T00:52:59;4.30;;;4.00;;
21589;SDS011;10957;50.968;6.828;2022-08-19T00:57:36;2.95;;;2.85;;
21589;SDS011;10957;50.968;6.828;2022-08-19T01:02:41;3.25;;;3.15;;
21589;SDS011;10957;50.968;6.828;2022-08-19T01:07:42;3.13;;;3.03;;
21589;SDS011;10957;50.968;6.828;2022-08-19T01:12:43;3.40;;;3.20;;
21589;SDS011;10957;50.968;6.828;2022-08-19T01:17:45;3.15;;;3.00;;
21589;SDS011;10957;50.968;6.828;2022-08-19T01:22:48;3.70;;;3.50;;
21589;SDS011;10957;50.968;6.828;2022-08-19T01:27:52;3.65;;;3.45;;
21589;SDS011;10957;50.968;6.828;2022-08-19T01:32:53;3.00;;;2.90;;
21589;SDS011;10957;50.968;6.828;2022-08-19T01:38:02;3.35;;;3.10;;
21589;SDS011;10957;50.968;6.828;2022-08-19T01:43:08;4.30;;;3.90;;
21589;SDS011;10957;50.968;6.828;2022-08-19T01:48:09;2.80;;;2.70;;
21589;SDS011;10957;50.968;6.828;2022-08-19T01:53:10;2.67;;;2.58;;
21589;SDS011;10957;50.968;6.828;2022-08-19T01:58:12;3.38;;;3.17;;
21589;SDS011;10957;50.968;6.828;2022-08-19T02:03:17;3.25;;;3.05;;
21589;SDS011;10957;50.968;6.828;2022-08-19T02:08:17;2.63;;;2.53;;
21589;SDS011;10957;50.968;6.828;2022-08-19T02:13:18;4.38;;;4.07;;
21589;SDS011;10957;50.968;6.828;2022-08-19T02:18:19;2.83;;;2.72;;
21589;SDS011;10957;50.968;6.828;2022-08-19T02:23:20;3.33;;;2.90;;
21589;SDS011;10957;50.968;6.828;2022-08-19T02:28:21;3.53;;;3.33;;
21589;SDS011;10957;50.968;6.828;2022-08-19T02:33:21;3.75;;;3.55;;
21589;SDS011;10957;50.968;6.828;2022-08-19T02:38:22;4.32;;;4.03;;
21589;SDS011;10957;50.968;6.828;2022-08-19T02:43:26;3.15;;;2.95;;
21589;SDS011;10957;50.968;6.828;2022-08-19T02:48:28;3.17;;;3.03;;
21589;SDS011;10957;50.968;6.828;2022-08-19T02:53:30;3.20;;;3.00;;
21589;SDS011;10957;50.968;6.828;2022-08-19T02:58:30;3.38;;;3.13;;
21589;SDS011;10957;50.968;6.828;2022-08-19T03:03:31;2.60;;;2.50;;
21589;SDS011;10957;50.968;6.828;2022-08-19T03:08:33;3.20;;;3.00;;
21589;SDS011;10957;50.968;6.828;2022-08-19T03:13:33;2.83;;;2.70;;
21589;SDS011;10957;50.968;6.828;2022-08-19T03:18:34;4.30;;;3.45;;
21589;SDS011;10957;50.968;6.828;2022-08-19T03:23:35;3.80;;;3.38;;
21589;SDS011;10957;50.968;6.828;2022-08-19T03:28:36;3.50;;;3.28;;
21589;SDS011;10957;50.968;6.828;2022-08-19T03:33:37;3.65;;;3.45;;
21589;SDS011;10957;50.968;6.828;2022-08-19T03:38:40;3.95;;;3.72;;
21589;SDS011;10957;50.968;6.828;2022-08-19T03:43:48;3.05;;;2.90;;
21589;SDS011;10957;50.968;6.828;2022-08-19T03:48:50;3.85;;;3.63;;
21589;SDS011;10957;50.968;6.828;2022-08-19T04:20:43;5.03;;;4.63;;
21589;SDS011;10957;50.968;6.828;2022-08-19T04:25:47;3.42;;;3.25;;
21589;SDS011;10957;50.968;6.828;2022-08-19T04:30:49;3.63;;;3.40;;
21589;SDS011;10957;50.968;6.828;2022-08-19T04:35:52;4.30;;;4.00;;
21589;SDS011;10957;50.968;6.828;2022-08-19T04:40:53;7.10;;;5.95;;
21589;SDS011;10957;50.968;6.828;2022-08-19T04:46:12;4.38;;;3.92;;
21589;SDS011;10957;50.968;6.828;2022-08-19T04:51:13;4.03;;;3.75;;
21589;SDS011;10957;50.968;6.828;2022-08-19T04:56:14;4.15;;;3.85;;
21589;SDS011;10957;50.968;6.828;2022-08-19T05:01:18;6.78;;;5.85;;
21589;SDS011;10957;50.968;6.828;2022-08-19T05:06:21;4.53;;;4.20;;
21589;SDS011;10957;50.968;6.828;2022-08-19T05:11:26;6.55;;;4.97;;
21589;SDS011;10957;50.968;6.828;2022-08-19T05:16:29;7.93;;;5.45;;
21589;SDS011;10957;50.968;6.828;2022-08-19T05:21:30;4.95;;;4.50;;
21589;SDS011;10957;50.968;6.828;2022-08-19T05:26:50;5.03;;;4.63;;
21589;SDS011;10957;50.968;6.828;2022-08-19T05:31:53;4.55;;;4.25;;
21589;SDS011;10957;50.968;6.828;2022-08-19T05:36:56;3.67;;;3.47;;
21589;SDS011;10957;50.968;6.828;2022-08-19T05:42:00;4.78;;;4.47;;
21589;SDS011;10957;50.968;6.828;2022-08-19T05:47:04;4.25;;;3.95;;
21589;SDS011;10957;50.968;6.828;2022-08-19T05:52:07;4.80;;;4.45;;
21589;SDS011;10957;50.968;6.828;2022-08-19T05:57:10;4.90;;;4.60;;
21589;SDS011;10957;50.968;6.828;2022-08-19T06:02:11;6.50;;;5.22;;
21589;SDS011;10957;50.968;6.828;2022-08-19T06:07:13;4.22;;;3.97;;
21589;SDS011;10957;50.968;6.828;2022-08-19T06:12:15;4.80;;;4.50;;
21589;SDS011;10957;50.968;6.828;2022-08-19T06:17:16;7.47;;;5.43;;
21589;SDS011;10957;50.968;6.828;2022-08-19T06:22:16;6.80;;;5.47;;
21589;SDS011;10957;50.968;6.828;2022-08-19T06:27:17;5.00;;;4.70;;
21589;SDS011;10957;50.968;6.828;2022-08-19T06:32:18;6.78;;;6.28;;
21589;SDS011;10957;50.968;6.828;2022-08-19T06:37:19;5.55;;;4.97;;
21589;SDS011;10957;50.968;6.828;2022-08-19T06:42:21;4.63;;;4.20;;
21589;SDS011;10957;50.968;6.828;2022-08-19T06:47:22;6.05;;;5.43;;
21589;SDS011;10957;50.968;6.828;2022-08-19T06:52:23;5.72;;;5.10;;
21589;SDS011;10957;50.968;6.828;2022-08-19T06:57:24;4.78;;;4.45;;
21589;SDS011;10957;50.968;6.828;2022-08-19T07:02:25;5.72;;;5.30;;
21589;SDS011;10957;50.968;6.828;2022-08-19T07:07:26;6.18;;;5.63;;
21589;SDS011;10957;50.968;6.828;2022-08-19T07:12:29;7.35;;;6.65;;
21589;SDS011;10957;50.968;6.828;2022-08-19T07:17:34;16.38;;;5.97;;
21589;SDS011;10957;50.968;6.828;2022-08-19T07:22:39;6.82;;;6.13;;
21589;SDS011;10957;50.968;6.828;2022-08-19T07:27:40;4.78;;;4.47;;
21589;SDS011;10957;50.968;6.828;2022-08-19T07:32:41;6.35;;;5.75;;
21589;SDS011;10957;50.968;6.828;2022-08-19T07:37:42;6.45;;;5.85;;
21589;SDS011;10957;50.968;6.828;2022-08-19T07:42:44;6.88;;;6.05;;
21589;SDS011;10957;50.968;6.828;2022-08-19T07:47:45;5.75;;;5.35;;
21589;SDS011;10957;50.968;6.828;2022-08-19T07:52:46;6.60;;;6.00;;
21589;SDS011;10957;50.968;6.828;2022-08-19T07:57:49;8.48;;;6.50;;
21589;SDS011;10957;50.968;6.828;2022-08-19T08:02:52;8.23;;;7.28;;
21589;SDS011;10957;50.968;6.828;2022-08-19T08:07:53;6.85;;;6.25;;
21589;SDS011;10957;50.968;6.828;2022-08-19T08:13:13;7.93;;;6.32;;
21589;SDS011;10957;50.968;6.828;2022-08-19T08:18:14;7.25;;;6.65;;
21589;SDS011;10957;50.968;6.828;2022-08-19T08:23:14;4.78;;;4.47;;
21589;SDS011;10957;50.968;6.828;2022-08-19T08:28:28;5.60;;;5.03;;
21589;SDS011;10957;50.968;6.828;2022-08-19T08:33:29;9.13;;;7.63;;
21589;SDS011;10957;50.968;6.828;2022-08-19T08:38:31;7.43;;;6.50;;
21589;SDS011;10957;50.968;6.828;2022-08-19T08:43:33;8.50;;;5.93;;
21589;SDS011;10957;50.968;6.828;2022-08-19T08:48:52;6.78;;;5.90;;
21589;SDS011;10957;50.968;6.828;2022-08-19T08:53:56;6.55;;;6.05;;
21589;SDS011;10957;50.968;6.828;2022-08-19T08:59:02;7.03;;;6.43;;
21589;SDS011;10957;50.968;6.828;2022-08-19T09:04:10;5.63;;;5.22;;
21589;SDS011;10957;50.968;6.828;2022-08-19T09:20:00;5.05;;;4.65;;
21589;SDS011;10957;50.968;6.828;2022-08-19T09:25:07;5.78;;;5.25;;
21589;SDS011;10957;50.968;6.828;2022-08-19T09:30:12;6.93;;;5.10;;
21589;SDS011;10957;50.968;6.828;2022-08-19T09:35:17;4.75;;;4.35;;
21589;SDS011;10957;50.968;6.828;2022-08-19T09:40:18;5.95;;;5.00;;
21589;SDS011;10957;50.968;6.828;2022-08-19T09:45:20;6.63;;;4.70;;
21589;SDS011;10957;50.968;6.828;2022-08-19T09:50:22;4.65;;;4.13;;
21589;SDS011;10957;50.968;6.828;2022-08-19T09:55:25;4.35;;;3.95;;
21589;SDS011;10957;50.968;6.828;2022-08-19T10:00:26;33.72;;;3.67;;
21589;SDS011;10957;50.968;6.828;2022-08-19T10:05:27;4.07;;;3.78;;
21589;SDS011;10957;50.968;6.828;2022-08-19T10:10:46;4.57;;;3.70;;
21589;SDS011;10957;50.968;6.828;2022-08-19T10:15:48;3.65;;;3.42;;
21589;SDS011;10957;50.968;6.828;2022-08-19T10:21:01;3.20;;;3.00;;
21589;SDS011;10957;50.968;6.828;2022-08-19T10:26:10;6.45;;;4.35;;
21589;SDS011;10957;50.968;6.828;2022-08-19T10:31:14;4.20;;;3.83;;
21589;SDS011;10957;50.968;6.828;2022-08-19T10:36:18;4.20;;;3.80;;
21589;SDS011;10957;50.968;6.828;2022-08-19T10:41:23;6.38;;;5.05;;
21589;SDS011;10957;50.968;6.828;2022-08-19T10:46:26;3.92;;;3.50;;
21589;SDS011;10957;50.968;6.828;2022-08-19T10:51:28;5.90;;;5.35;;
21589;SDS011;10957;50.968;6.828;2022-08-19T10:56:48;3.80;;;3.50;;
21589;SDS011;10957;50.968;6.828;2022-08-19T11:01:51;4.50;;;3.15;;
21589;SDS011;10957;50.968;6.828;2022-08-19T11:06:52;3.10;;;2.90;;
21589;SDS011;10957;50.968;6.828;2022-08-19T11:11:53;3.22;;;3.03;;
21589;SDS011;10957;50.968;6.828;2022-08-19T11:16:54;3.55;;;3.28;;
21589;SDS011;10957;50.968;6.828;2022-08-19T11:21:57;3.97;;;3.38;;
21589;SDS011;10957;50.968;6.828;2022-08-19T11:27:03;3.63;;;3.33;;
21589;SDS011;10957;50.968;6.828;2022-08-19T11:32:06;3.70;;;3.47;;
21589;SDS011;10957;50.968;6.828;2022-08-19T11:37:09;5.55;;;3.13;;
21589;SDS011;10957;50.968;6.828;2022-08-19T11:42:10;3.55;;;3.25;;
21589;SDS011;10957;50.968;6.828;2022-08-19T11:47:29;3.10;;;2.88;;
21589;SDS011;10957;50.968;6.828;2022-08-19T11:52:31;3.63;;;3.33;;
21589;SDS011;10957;50.968;6.828;2022-08-19T11:57:32;3.28;;;3.00;;
21589;SDS011;10957;50.968;6.828;2022-08-19T12:02:33;3.30;;;3.10;;
21589;SDS011;10957;50.968;6.828;2022-08-19T12:07:34;3.22;;;3.03;;
21589;SDS011;10957;50.968;6.828;2022-08-19T12:12:36;4.03;;;2.85;;
21589;SDS011;10957;50.968;6.828;2022-08-19T12:17:45;2.67;;;2.53;;
21589;SDS011;10957;50.968;6.828;2022-08-19T12:22:46;3.22;;;2.97;;
21589;SDS011;10957;50.968;6.828;2022-08-19T12:27:48;2.53;;;2.42;;
21589;SDS011;10957;50.968;6.828;2022-08-19T12:32:49;4.35;;;3.95;;
21589;SDS011;10957;50.968;6.828;2022-08-19T12:37:51;3.22;;;3.03;;
21589;SDS011;10957;50.968;6.828;2022-08-19T12:42:52;5.68;;;3.53;;
21589;SDS011;10957;50.968;6.828;2022-08-19T12:47:54;2.75;;;2.55;;
21589;SDS011;10957;50.968;6.828;2022-08-19T12:52:54;3.63;;;3.08;;
21589;SDS011;10957;50.968;6.828;2022-08-19T12:57:57;4.05;;;3.75;;
21589;SDS011;10957;50.968;6.828;2022-08-19T13:02:58;3.45;;;3.17;;
21589;SDS011;10957;50.968;6.828;2022-08-19T13:08:00;3.00;;;2.83;;
21589;SDS011;10957;50.968;6.828;2022-08-19T13:13:03;4.53;;;3.30;;
21589;SDS011;10957;50.968;6.828;2022-08-19T13:18:07;3.65;;;3.35;;
21589;SDS011;10957;50.968;6.828;2022-08-19T13:23:10;2.30;;;2.20;;
21589;SDS011;10957;50.968;6.828;2022-08-19T13:28:11;3.22;;;2.97;;
21589;SDS011;10957;50.968;6.828;2022-08-19T13:33:11;3.10;;;2.90;;
21589;SDS011;10957;50.968;6.828;2022-08-19T13:38:17;2.15;;;2.05;;
21589;SDS011;10957;50.968;6.828;2022-08-19T13:43:21;3.08;;;2.88;;
21589;SDS011;10957;50.968;6.828;2022-08-19T13:48:25;2.70;;;2.50;;
21589;SDS011;10957;50.968;6.828;2022-08-19T13:53:27;13.23;;;3.53;;
21589;SDS011;10957;50.968;6.828;2022-08-19T13:58:28;2.63;;;2.42;;
21589;SDS011;10957;50.968;6.828;2022-08-19T14:03:30;5.30;;;2.28;;
21589;SDS011;10957;50.968;6.828;2022-08-19T14:08:31;2.42;;;2.22;;
21589;SDS011;10957;50.968;6.828;2022-08-19T14:13:32;2.75;;;2.58;;
21589;SDS011;10957;50.968;6.828;2022-08-19T14:18:34;2.33;;;2.22;;
21589;SDS011;10957;50.968;6.828;2022-08-19T14:23:35;2.83;;;2.70;;
21589;SDS011;10957;50.968;6.828;2022-08-19T14:28:36;2.85;;;2.65;;
21589;SDS011;10957;50.968;6.828;2022-08-19T14:33:37;1.77;;;1.70;;
21589;SDS011;10957;50.968;6.828;2022-08-19T14:38:38;8.02;;;2.42;;
21589;SDS011;10957;50.968;6.828;2022-08-19T14:43:39;2.42;;;2.33;;
21589;SDS011;10957;50.968;6.828;2022-08-19T14:48:40;2.25;;;2.15;;
21589;SDS011;10957;50.968;6.828;2022-08-19T14:53:42;2.05;;;1.95;;
21589;SDS011;10957;50.968;6.828;2022-08-19T14:58:44;2.05;;;1.95;;
21589;SDS011;10957;50.968;6.828;2022-08-19T15:03:45;2.00;;;1.90;;
21589;SDS011;10957;50.968;6.828;2022-08-19T15:08:46;1.65;;;1.58;;
21589;SDS011;10957;50.968;6.828;2022-08-19T15:13:48;2.22;;;2.13;;
21589;SDS011;10957;50.968;6.828;2022-08-19T15:18:51;1.73;;;1.67;;
21589;SDS011;10957;50.968;6.828;2022-08-19T15:23:54;1.90;;;1.80;;
21589;SDS011;10957;50.968;6.828;2022-08-19T15:28:58;1.67;;;1.58;;
21589;SDS011;10957;50.968;6.828;2022-08-19T15:34:00;2.10;;;1.90;;
21589;SDS011;10957;50.968;6.828;2022-08-19T15:39:00;2.00;;;1.88;;
21589;SDS011;10957;50.968;6.828;2022-08-19T15:44:04;1.90;;;1.80;;
21589;SDS011;10957;50.968;6.828;2022-08-19T15:49:10;1.77;;;1.67;;
21589;SDS011;10957;50.968;6.828;2022-08-19T15:54:14;1.92;;;1.83;;
21589;SDS011;10957;50.968;6.828;2022-08-19T15:59:20;3.35;;;2.15;;
21589;SDS011;10957;50.968;6.828;2022-08-19T16:04:39;5.28;;;2.42;;
21589;SDS011;10957;50.968;6.828;2022-08-19T16:09:58;2.20;;;2.10;;
21589;SDS011;10957;50.968;6.828;2022-08-19T16:14:59;2.67;;;2.22;;
21589;SDS011;10957;50.968;6.828;2022-08-19T16:20:01;1.73;;;1.73;;
21589;SDS011;10957;50.968;6.828;2022-08-19T16:25:04;13.40;;;2.10;;
21589;SDS011;10957;50.968;6.828;2022-08-19T16:30:07;2.22;;;2.13;;
21589;SDS011;10957;50.968;6.828;2022-08-19T16:35:08;2.00;;;1.90;;
21589;SDS011;10957;50.968;6.828;2022-08-19T16:40:10;2.05;;;1.95;;
21589;SDS011;10957;50.968;6.828;2022-08-19T16:45:11;1.90;;;1.80;;
21589;SDS011;10957;50.968;6.828;2022-08-19T16:50:12;1.95;;;1.85;;
21589;SDS011;10957;50.968;6.828;2022-08-19T16:55:13;1.77;;;1.67;;
21589;SDS011;10957;50.968;6.828;2022-08-19T17:00:14;1.60;;;1.60;;
21589;SDS011;10957;50.968;6.828;2022-08-19T17:05:15;1.83;;;1.77;;
21589;SDS011;10957;50.968;6.828;2022-08-19T17:10:16;1.80;;;1.70;;
21589;SDS011;10957;50.968;6.828;2022-08-19T17:15:17;5.40;;;2.35;;
21589;SDS011;10957;50.968;6.828;2022-08-19T17:20:18;1.70;;;1.70;;
21589;SDS011;10957;50.968;6.828;2022-08-19T17:25:18;1.90;;;1.80;;
21589;SDS011;10957;50.968;6.828;2022-08-19T17:30:20;5.05;;;2.35;;
21589;SDS011;10957;50.968;6.828;2022-08-19T17:35:22;2.17;;;2.08;;
21589;SDS011;10957;50.968;6.828;2022-08-19T17:40:23;2.38;;;2.22;;
21589;SDS011;10957;50.968;6.828;2022-08-19T17:45:25;14.45;;;2.58;;
21589;SDS011;10957;50.968;6.828;2022-08-19T17:50:27;2.35;;;2.25;;
21589;SDS011;10957;50.968;6.828;2022-08-19T17:55:28;1.67;;;1.65;;
21589;SDS011;10957;50.968;6.828;2022-08-19T18:00:30;2.15;;;2.00;;
21589;SDS011;10957;50.968;6.828;2022-08-19T18:05:34;1.60;;;1.60;;
21589;SDS011;10957;50.968;6.828;2022-08-19T18:10:40;2.17;;;2.08;;
21589;SDS011;10957;50.968;6.828;2022-08-19T18:15:41;2.53;;;2.42;;
21589;SDS011;10957;50.968;6.828;2022-08-19T18:20:42;2.40;;;2.30;;
21589;SDS011;10957;50.968;6.828;2022-08-19T18:25:43;2.78;;;2.58;;
21589;SDS011;10957;50.968;6.828;2022-08-19T18:30:44;1.88;;;1.77;;
21589;SDS011;10957;50.968;6.828;2022-08-19T18:35:45;2.05;;;1.85;;
21589;SDS011;10957;50.968;6.828;2022-08-19T18:40:47;1.80;;;1.70;;
21589;SDS011;10957;50.968;6.828;2022-08-19T18:46:07;1.60;;;1.60;;
21589;SDS011;10957;50.968;6.828;2022-08-19T18:51:27;2.05;;;1.95;;
21589;SDS011;10957;50.968;6.828;2022-08-19T18:56:33;1.80;;;1.80;;
21589;SDS011;10957;50.968;6.828;2022-08-19T19:01:37;2.63;;;2.42;;
21589;SDS011;10957;50.968;6.828;2022-08-19T19:06:39;1.70;;;1.70;;
21589;SDS011;10957;50.968;6.828;2022-08-19T19:11:42;1.95;;;1.88;;
21589;SDS011;10957;50.968;6.828;2022-08-19T19:16:44;2.30;;;2.20;;
21589;SDS011;10957;50.968;6.828;2022-08-19T19:21:46;2.00;;;1.90;;
21589;SDS011;10957;50.968;6.828;2022-08-19T19:26:49;2.08;;;1.98;;
21589;SDS011;10957;50.968;6.828;2022-08-19T19:31:51;2.80;;;2.03;;
21589;SDS011;10957;50.968;6.828;2022-08-19T19:36:53;2.10;;;2.00;;
21589;SDS011;10957;50.968;6.828;2022-08-19T19:41:53;2.30;;;2.20;;
21589;SDS011;10957;50.968;6.828;2022-08-19T19:46:54;2.30;;;2.20;;
21589;SDS011;10957;50.968;6.828;2022-08-19T19:51:55;2.30;;;2.20;;
21589;SDS011;10957;50.968;6.828;2022-08-19T19:56:56;2.30;;;2.20;;
21589;SDS011;10957;50.968;6.828;2022-08-19T20:01:57;2.70;;;2.60;;
21589;SDS011;10957;50.968;6.828;2022-08-19T20:06:58;2.40;;;2.30;;
21589;SDS011;10957;50.968;6.828;2022-08-19T20:11:58;2.40;;;2.30;;
21589;SDS011;10957;50.968;6.828;2022-08-19T20:17:00;2.53;;;2.42;;
21589;SDS011;10957;50.968;6.828;2022-08-19T20:22:03;2.63;;;2.53;;
21589;SDS011;10957;50.968;6.828;2022-08-19T20:27:05;2.70;;;2.60;;
21589;SDS011;10957;50.968;6.828;2022-08-19T20:32:06;2.60;;;2.50;;
21589;SDS011;10957;50.968;6.828;2022-08-19T20:37:08;2.72;;;2.63;;
21589;SDS011;10957;50.968;6.828;2022-08-19T20:42:09;2.78;;;2.67;;
21589;SDS011;10957;50.968;6.828;2022-08-19T20:47:09;2.90;;;2.80;;
21589;SDS011;10957;50.968;6.828;2022-08-19T20:52:10;3.47;;;3.28;;
21589;SDS011;10957;50.968;6.828;2022-08-19T20:57:11;2.80;;;2.70;;
21589;SDS011;10957;50.968;6.828;2022-08-19T21:02:12;3.17;;;3.08;;
21589;SDS011;10957;50.968;6.828;2022-08-19T21:07:14;3.10;;;2.90;;
21589;SDS011;10957;50.968;6.828;2022-08-19T21:12:15;3.15;;;3.05;;
21589;SDS011;10957;50.968;6.828;2022-08-19T21:17:16;2.90;;;2.80;;
21589;SDS011;10957;50.968;6.828;2022-08-19T21:22:17;3.15;;;3.05;;
21589;SDS011;10957;50.968;6.828;2022-08-19T21:27:18;3.08;;;2.97;;
21589;SDS011;10957;50.968;6.828;2022-08-19T21:32:19;6.13;;;3.20;;
21589;SDS011;10957;50.968;6.828;2022-08-19T21:37:20;2.90;;;2.80;;
21589;SDS011;10957;50.968;6.828;2022-08-19T21:42:22;3.00;;;2.90;;
21589;SDS011;10957;50.968;6.828;2022-08-19T21:47:23;3.25;;;3.15;;
21589;SDS011;10957;50.968;6.828;2022-08-19T21:52:24;3.38;;;3.17;;
21589;SDS011;10957;50.968;6.828;2022-08-19T21:57:26;3.63;;;3.42;;
21589;SDS011;10957;50.968;6.828;2022-08-19T22:02:26;3.05;;;2.95;;
21589;SDS011;10957;50.968;6.828;2022-08-19T22:07:27;2.90;;;2.80;;
21589;SDS011;10957;50.968;6.828;2022-08-19T22:12:29;3.20;;;3.10;;
21589;SDS011;10957;50.968;6.828;2022-08-19T22:17:31;3.42;;;3.33;;
21589;SDS011;10957;50.968;6.828;2022-08-19T22:22:33;3.60;;;3.30;;
21589;SDS011;10957;50.968;6.828;2022-08-19T22:27:34;3.50;;;3.30;;
21589;SDS011;10957;50.968;6.828;2022-08-19T22:32:35;3.75;;;3.55;;
21589;SDS011;10957;50.968;6.828;2022-08-19T22:37:37;3.50;;;3.40;;
21589;SDS011;10957;50.968;6.828;2022-08-19T22:42:38;3.38;;;3.20;;
21589;SDS011;10957;50.968;6.828;2022-08-19T22:47:39;3.17;;;3.08;;
21589;SDS011;10957;50.968;6.828;2022-08-19T22:52:41;3.33;;;3.22;;
21589;SDS011;10957;50.968;6.828;2022-08-19T22:57:43;3.30;;;3.20;;
21589;SDS011;10957;50.968;6.828;2022-08-19T23:02:43;3.63;;;3.42;;
21589;SDS011;10957;50.968;6.828;2022-08-19T23:07:45;3.90;;;3.63;;
21589;SDS011;10957;50.968;6.828;2022-08-19T23:12:46;3.75;;;3.55;;
21589;SDS011;10957;50.968;6.828;2022-08-19T23:17:48;3.50;;;3.30;;
21589;SDS011;10957;50.968;6.828;2022-08-19T23:22:49;3.95;;;3.67;;
21589;SDS011;10957;50.968;6.828;2022-08-19T23:27:51;4.25;;;3.85;;
21589;SDS011;10957;50.968;6.828;2022-08-19T23:33:15;3.92;;;3.72;;
21589;SDS011;10957;50.968;6.828;2022-08-19T23:38:24;4.45;;;3.47;;
21589;SDS011;10957;50.968;6.828;2022-08-19T23:43:28;3.55;;;3.35;;
21589;SDS011;10957;50.968;6.828;2022-08-19T23:48:31;3.58;;;3.38;;
21589;SDS011;10957;50.968;6.828;2022-08-19T23:53:33;3.05;;;2.95;;
21589;SDS011;10957;50.968;6.828;2022-08-19T23:58:36;3.55;;;3.35;;
